sensor_id;sensor_type;location;lat;lon;timestamp;temperature;humidity
67890;DHT22;54685;52.082;5.426;2023-03-17T00:01:53;8.80;99.90
67890;DHT22;54685;52.082;5.426;2023-03-17T00:04:22;8.80;99.90
67890;DHT22;54685;52.082;5.426;2023-03-17T00:06:51;8.80;99.90
67890;DHT22;54685;52.082;5.426;2023-03-17T00:09:19;8.70;99.90
67890;DHT22;54685;52.082;5.426;2023-03-17T00:11:47;8.70;99.90
67890;DHT22;54685;52.082;5.426;2023-03-17T00:14:15;8.70;99.90
67890;DHT22;54685;52.082;5.426;2023-03-17T00:16:47;8.60;99.90
67890;DHT22;54685;52.082;5.426;2023-03-17T00:19:30;8.60;99.90
67890;DHT22;54685;52.082;5.426;2023-03-17T00:21:59;8.60;99.90
67890;DHT22;54685;52.082;5.426;2023-03-17T00:24:27;8.50;99.90
67890;DHT22;54685;52.082;5.426;2023-03-17T00:26:54;8.50;99.90
67890;DHT22;54685;52.082;5.426;2023-03-17T00:29:22;8.50;99.90
67890;DHT22;54685;52.082;5.426;2023-03-17T00:31:49;8.50;99.90
67890;DHT22;54685;52.082;5.426;2023-03-17T00:34:21;8.50;99.90
67890;DHT22;54685;52.082;5.426;2023-03-17T00:36:50;8.50;99.90
67890;DHT22;54685;52.082;5.426;2023-03-17T00:39:17;8.50;99.90
67890;DHT22;54685;52.082;5.426;2023-03-17T00:41:45;8.50;99.90
67890;DHT22;54685;52.082;5.426;2023-03-17T00:44:11;8.40;99.90
67890;DHT22;54685;52.082;5.426;2023-03-17T00:46:39;8.50;99.90
67890;DHT22;54685;52.082;5.426;2023-03-17T00:49:17;8.40;99.90
67890;DHT22;54685;52.082;5.426;2023-03-17T00:51:45;8.40;99.90
67890;DHT22;54685;52.082;5.426;2023-03-17T00:54:14;8.30;99.90
67890;DHT22;54685;52.082;5.426;2023-03-17T00:56:41;8.30;99.90
67890;DHT22;54685;52.082;5.426;2023-03-17T00:59:36;8.20;99.90
67890;DHT22;54685;52.082;5.426;2023-03-17T01:02:04;8.20;99.90
67890;DHT22;54685;52.082;5.426;2023-03-17T01:04:32;8.20;99.90
67890;DHT22;54685;52.082;5.426;2023-03-17T01:06:59;8.20;99.90
67890;DHT22;54685;52.082;5.426;2023-03-17T01:09:28;8.20;99.90
67890;DHT22;54685;52.082;5.426;2023-03-17T01:11:56;8.20;99.90
67890;DHT22;54685;52.082;5.426;2023-03-17T01:14:23;8.10;99.90
67890;DHT22;54685;52.082;5.426;2023-03-17T01:16:50;8.10;99.90
67890;DHT22;54685;52.082;5.426;2023-03-17T01:19:18;8.10;99.90
67890;DHT22;54685;52.082;5.426;2023-03-17T01:21:45;8.10;99.90
67890;DHT22;54685;52.082;5.426;2023-03-17T01:24:13;8.00;99.90
67890;DHT22;54685;52.082;5.426;2023-03-17T01:26:40;8.10;99.90
67890;DHT22;54685;52.082;5.426;2023-03-17T01:29:08;8.10;99.90
67890;DHT22;54685;52.082;5.426;2023-03-17T01:31:35;8.10;99.90
67890;DHT22;54685;52.082;5.426;2023-03-17T01:34:04;8.10;99.90
67890;DHT22;54685;52.082;5.426;2023-03-17T01:36:32;8.10;99.90
67890;DHT22;54685;52.082;5.426;2023-03-17T01:39:00;8.10;99.90
67890;DHT22;54685;52.082;5.426;2023-03-17T01:41:27;8.00;99.90
67890;DHT22;54685;52.082;5.426;2023-03-17T01:43:54;8.00;99.90
67890;DHT22;54685;52.082;5.426;2023-03-17T01:46:39;8.00;99.90
67890;DHT22;54685;52.082;5.426;2023-03-17T01:49:21;8.00;99.90
67890;DHT22;54685;52.082;5.426;2023-03-17T01:52:01;8.00;99.90
67890;DHT22;54685;52.082;5.426;2023-03-17T01:54:54;8.00;99.90
67890;DHT22;54685;52.082;5.426;2023-03-17T01:57:32;7.90;99.90
67890;DHT22;54685;52.082;5.426;2023-03-17T02:00:10;7.90;99.90
67890;DHT22;54685;52.082;5.426;2023-03-17T02:02:42;7.90;99.90
67890;DHT22;54685;52.082;5.426;2023-03-17T02:05:13;7.80;99.90
67890;DHT22;54685;52.082;5.426;2023-03-17T02:07:41;7.90;99.90
67890;DHT22;54685;52.082;5.426;2023-03-17T02:10:09;7.90;99.90
67890;DHT22;54685;52.082;5.426;2023-03-17T02:12:39;7.80;99.90
67890;DHT22;54685;52.082;5.426;2023-03-17T02:15:08;7.80;99.90
67890;DHT22;54685;52.082;5.426;2023-03-17T02:17:36;7.90;99.90
67890;DHT22;54685;52.082;5.426;2023-03-17T02:22:43;7.80;99.90
67890;DHT22;54685;52.082;5.426;2023-03-17T02:25:13;7.70;99.90
67890;DHT22;54685;52.082;5.426;2023-03-17T02:27:45;7.70;99.90
67890;DHT22;54685;52.082;5.426;2023-03-17T02:30:16;7.70;99.90
67890;DHT22;54685;52.082;5.426;2023-03-17T02:32:45;7.70;99.90
67890;DHT22;54685;52.082;5.426;2023-03-17T02:35:13;7.60;99.90
67890;DHT22;54685;52.082;5.426;2023-03-17T02:37:41;7.60;99.90
67890;DHT22;54685;52.082;5.426;2023-03-17T02:40:13;7.60;99.90
67890;DHT22;54685;52.082;5.426;2023-03-17T02:42:41;7.60;99.90
67890;DHT22;54685;52.082;5.426;2023-03-17T02:45:09;7.60;99.90
67890;DHT22;54685;52.082;5.426;2023-03-17T02:47:40;7.60;99.90
67890;DHT22;54685;52.082;5.426;2023-03-17T02:50:19;7.60;99.90
67890;DHT22;54685;52.082;5.426;2023-03-17T02:52:49;7.60;99.90
67890;DHT22;54685;52.082;5.426;2023-03-17T02:55:16;7.70;99.90
67890;DHT22;54685;52.082;5.426;2023-03-17T02:57:43;7.70;99.90
67890;DHT22;54685;52.082;5.426;2023-03-17T03:00:11;7.70;99.90
67890;DHT22;54685;52.082;5.426;2023-03-17T03:02:40;7.70;99.90
67890;DHT22;54685;52.082;5.426;2023-03-17T03:05:08;7.70;99.90
67890;DHT22;54685;52.082;5.426;2023-03-17T03:07:36;7.70;99.90
67890;DHT22;54685;52.082;5.426;2023-03-17T03:10:03;7.80;99.90
67890;DHT22;54685;52.082;5.426;2023-03-17T03:12:31;7.80;99.90
67890;DHT22;54685;52.082;5.426;2023-03-17T03:14:58;7.90;99.90
67890;DHT22;54685;52.082;5.426;2023-03-17T03:17:26;7.90;99.90
67890;DHT22;54685;52.082;5.426;2023-03-17T03:19:53;8.00;99.90
67890;DHT22;54685;52.082;5.426;2023-03-17T03:22:21;8.00;99.90
67890;DHT22;54685;52.082;5.426;2023-03-17T03:24:51;8.00;99.90
67890;DHT22;54685;52.082;5.426;2023-03-17T03:27:18;8.00;99.90
67890;DHT22;54685;52.082;5.426;2023-03-17T03:29:45;8.10;99.90
67890;DHT22;54685;52.082;5.426;2023-03-17T03:32:12;8.10;99.90
67890;DHT22;54685;52.082;5.426;2023-03-17T03:34:40;8.10;99.90
67890;DHT22;54685;52.082;5.426;2023-03-17T03:37:07;8.10;99.90
67890;DHT22;54685;52.082;5.426;2023-03-17T03:39:34;8.10;99.90
67890;DHT22;54685;52.082;5.426;2023-03-17T03:42:01;8.10;99.90
67890;DHT22;54685;52.082;5.426;2023-03-17T03:44:28;8.10;99.90
67890;DHT22;54685;52.082;5.426;2023-03-17T03:46:55;8.20;99.90
67890;DHT22;54685;52.082;5.426;2023-03-17T03:49:22;8.20;99.90
67890;DHT22;54685;52.082;5.426;2023-03-17T03:51:49;8.20;99.90
67890;DHT22;54685;52.082;5.426;2023-03-17T03:54:16;8.10;99.90
67890;DHT22;54685;52.082;5.426;2023-03-17T03:56:43;8.10;99.90
67890;DHT22;54685;52.082;5.426;2023-03-17T03:59:10;8.20;99.90
67890;DHT22;54685;52.082;5.426;2023-03-17T04:01:37;8.10;99.90
67890;DHT22;54685;52.082;5.426;2023-03-17T04:04:05;8.20;99.90
67890;DHT22;54685;52.082;5.426;2023-03-17T04:06:32;8.10;99.90
67890;DHT22;54685;52.082;5.426;2023-03-17T04:08:59;8.10;99.90
67890;DHT22;54685;52.082;5.426;2023-03-17T04:11:26;8.20;99.90
67890;DHT22;54685;52.082;5.426;2023-03-17T04:13:53;8.20;99.90
67890;DHT22;54685;52.082;5.426;2023-03-17T04:16:20;8.20;99.90
67890;DHT22;54685;52.082;5.426;2023-03-17T04:18:47;8.20;99.90
67890;DHT22;54685;52.082;5.426;2023-03-17T04:21:15;8.20;99.90
67890;DHT22;54685;52.082;5.426;2023-03-17T04:23:45;8.10;99.90
67890;DHT22;54685;52.082;5.426;2023-03-17T04:26:12;8.10;99.90
67890;DHT22;54685;52.082;5.426;2023-03-17T04:28:39;8.10;99.90
67890;DHT22;54685;52.082;5.426;2023-03-17T04:31:08;8.20;99.90
67890;DHT22;54685;52.082;5.426;2023-03-17T04:33:37;8.20;99.90
67890;DHT22;54685;52.082;5.426;2023-03-17T04:36:04;8.20;99.90
67890;DHT22;54685;52.082;5.426;2023-03-17T04:38:33;8.20;99.90
67890;DHT22;54685;52.082;5.426;2023-03-17T04:41:00;8.20;99.90
67890;DHT22;54685;52.082;5.426;2023-03-17T04:43:28;8.20;99.90
67890;DHT22;54685;52.082;5.426;2023-03-17T04:45:55;8.20;99.90
67890;DHT22;54685;52.082;5.426;2023-03-17T04:48:22;8.20;99.90
67890;DHT22;54685;52.082;5.426;2023-03-17T04:50:51;8.20;99.90
67890;DHT22;54685;52.082;5.426;2023-03-17T04:53:18;8.20;99.90
67890;DHT22;54685;52.082;5.426;2023-03-17T04:55:45;8.20;99.90
67890;DHT22;54685;52.082;5.426;2023-03-17T04:58:12;8.20;99.90
67890;DHT22;54685;52.082;5.426;2023-03-17T05:00:56;8.10;99.90
67890;DHT22;54685;52.082;5.426;2023-03-17T05:03:23;8.10;99.90
67890;DHT22;54685;52.082;5.426;2023-03-17T05:05:53;8.10;99.90
67890;DHT22;54685;52.082;5.426;2023-03-17T05:08:21;8.20;99.90
67890;DHT22;54685;52.082;5.426;2023-03-17T05:10:49;8.10;99.90
67890;DHT22;54685;52.082;5.426;2023-03-17T05:13:17;8.10;99.90
67890;DHT22;54685;52.082;5.426;2023-03-17T05:15:49;8.10;99.90
67890;DHT22;54685;52.082;5.426;2023-03-17T05:18:18;8.10;99.90
67890;DHT22;54685;52.082;5.426;2023-03-17T05:20:45;8.10;99.90
67890;DHT22;54685;52.082;5.426;2023-03-17T05:23:12;8.10;99.90
67890;DHT22;54685;52.082;5.426;2023-03-17T05:25:40;8.00;99.90
67890;DHT22;54685;52.082;5.426;2023-03-17T05:28:07;8.00;99.90
67890;DHT22;54685;52.082;5.426;2023-03-17T05:30:35;8.00;99.90
67890;DHT22;54685;52.082;5.426;2023-03-17T05:33:03;8.00;99.90
67890;DHT22;54685;52.082;5.426;2023-03-17T05:35:31;8.00;99.90
67890;DHT22;54685;52.082;5.426;2023-03-17T05:37:58;8.00;99.90
67890;DHT22;54685;52.082;5.426;2023-03-17T05:40:25;8.00;99.90
67890;DHT22;54685;52.082;5.426;2023-03-17T05:42:52;8.00;99.90
67890;DHT22;54685;52.082;5.426;2023-03-17T05:45:19;8.00;99.90
67890;DHT22;54685;52.082;5.426;2023-03-17T05:47:46;8.00;99.90
67890;DHT22;54685;52.082;5.426;2023-03-17T05:50:13;8.00;99.90
67890;DHT22;54685;52.082;5.426;2023-03-17T05:52:40;8.00;99.90
67890;DHT22;54685;52.082;5.426;2023-03-17T05:55:07;8.00;99.90
67890;DHT22;54685;52.082;5.426;2023-03-17T05:57:35;8.00;99.90
67890;DHT22;54685;52.082;5.426;2023-03-17T06:00:03;8.10;99.90
67890;DHT22;54685;52.082;5.426;2023-03-17T06:02:31;8.00;99.90
67890;DHT22;54685;52.082;5.426;2023-03-17T06:04:58;8.00;99.90
67890;DHT22;54685;52.082;5.426;2023-03-17T06:07:25;8.10;99.90
67890;DHT22;54685;52.082;5.426;2023-03-17T06:09:56;8.10;99.90
67890;DHT22;54685;52.082;5.426;2023-03-17T06:12:23;8.10;99.90
67890;DHT22;54685;52.082;5.426;2023-03-17T06:14:51;8.10;99.90
67890;DHT22;54685;52.082;5.426;2023-03-17T06:17:18;8.10;99.90
67890;DHT22;54685;52.082;5.426;2023-03-17T06:19:45;8.10;99.90
67890;DHT22;54685;52.082;5.426;2023-03-17T06:22:15;8.10;99.90
67890;DHT22;54685;52.082;5.426;2023-03-17T06:24:42;8.10;99.90
67890;DHT22;54685;52.082;5.426;2023-03-17T06:27:09;8.10;99.90
67890;DHT22;54685;52.082;5.426;2023-03-17T06:29:36;8.10;99.90
67890;DHT22;54685;52.082;5.426;2023-03-17T06:32:03;8.10;99.90
67890;DHT22;54685;52.082;5.426;2023-03-17T06:34:46;8.10;99.90
67890;DHT22;54685;52.082;5.426;2023-03-17T06:37:14;8.10;99.90
67890;DHT22;54685;52.082;5.426;2023-03-17T06:39:42;8.10;99.90
67890;DHT22;54685;52.082;5.426;2023-03-17T06:42:11;8.10;99.90
67890;DHT22;54685;52.082;5.426;2023-03-17T06:44:38;8.10;99.90
67890;DHT22;54685;52.082;5.426;2023-03-17T06:47:05;8.20;99.90
67890;DHT22;54685;52.082;5.426;2023-03-17T06:49:32;8.10;99.90
67890;DHT22;54685;52.082;5.426;2023-03-17T06:51:59;8.20;99.90
67890;DHT22;54685;52.082;5.426;2023-03-17T06:54:26;8.20;99.90
67890;DHT22;54685;52.082;5.426;2023-03-17T06:56:53;8.20;99.90
67890;DHT22;54685;52.082;5.426;2023-03-17T06:59:21;8.20;99.90
67890;DHT22;54685;52.082;5.426;2023-03-17T07:01:48;8.20;99.90
67890;DHT22;54685;52.082;5.426;2023-03-17T07:04:16;8.20;99.90
67890;DHT22;54685;52.082;5.426;2023-03-17T07:06:44;8.20;99.90
67890;DHT22;54685;52.082;5.426;2023-03-17T07:09:11;8.20;99.90
67890;DHT22;54685;52.082;5.426;2023-03-17T07:11:38;8.30;99.90
67890;DHT22;54685;52.082;5.426;2023-03-17T07:14:05;8.30;99.90
67890;DHT22;54685;52.082;5.426;2023-03-17T07:16:33;8.30;99.90
67890;DHT22;54685;52.082;5.426;2023-03-17T07:19:01;8.30;99.90
67890;DHT22;54685;52.082;5.426;2023-03-17T07:21:28;8.40;99.90
67890;DHT22;54685;52.082;5.426;2023-03-17T07:23:55;8.40;99.90
67890;DHT22;54685;52.082;5.426;2023-03-17T07:26:22;8.50;99.90
67890;DHT22;54685;52.082;5.426;2023-03-17T07:28:50;8.60;99.90
67890;DHT22;54685;52.082;5.426;2023-03-17T07:31:18;8.60;99.90
67890;DHT22;54685;52.082;5.426;2023-03-17T07:33:45;8.70;99.90
67890;DHT22;54685;52.082;5.426;2023-03-17T07:36:13;8.70;99.90
67890;DHT22;54685;52.082;5.426;2023-03-17T07:38:41;8.80;99.90
67890;DHT22;54685;52.082;5.426;2023-03-17T07:41:09;8.80;99.90
67890;DHT22;54685;52.082;5.426;2023-03-17T07:43:36;8.90;99.90
67890;DHT22;54685;52.082;5.426;2023-03-17T07:46:04;8.90;99.90
67890;DHT22;54685;52.082;5.426;2023-03-17T07:48:32;8.90;99.90
67890;DHT22;54685;52.082;5.426;2023-03-17T07:51:02;9.00;99.90
67890;DHT22;54685;52.082;5.426;2023-03-17T07:53:29;9.00;99.90
67890;DHT22;54685;52.082;5.426;2023-03-17T07:55:56;9.00;99.90
67890;DHT22;54685;52.082;5.426;2023-03-17T07:58:23;9.00;99.90
67890;DHT22;54685;52.082;5.426;2023-03-17T08:00:50;9.10;99.90
67890;DHT22;54685;52.082;5.426;2023-03-17T08:03:17;9.10;99.90
67890;DHT22;54685;52.082;5.426;2023-03-17T08:05:51;9.10;99.90
67890;DHT22;54685;52.082;5.426;2023-03-17T08:08:19;9.10;99.90
67890;DHT22;54685;52.082;5.426;2023-03-17T08:10:48;9.10;99.90
67890;DHT22;54685;52.082;5.426;2023-03-17T08:13:16;9.20;99.90
67890;DHT22;54685;52.082;5.426;2023-03-17T08:15:44;9.30;99.90
67890;DHT22;54685;52.082;5.426;2023-03-17T08:18:12;9.30;99.90
67890;DHT22;54685;52.082;5.426;2023-03-17T08:20:39;9.40;99.90
67890;DHT22;54685;52.082;5.426;2023-03-17T08:23:06;9.40;99.90
67890;DHT22;54685;52.082;5.426;2023-03-17T08:25:33;9.50;99.90
67890;DHT22;54685;52.082;5.426;2023-03-17T08:28:00;9.50;99.90
67890;DHT22;54685;52.082;5.426;2023-03-17T08:30:27;9.60;99.90
67890;DHT22;54685;52.082;5.426;2023-03-17T08:33:02;9.70;99.90
67890;DHT22;54685;52.082;5.426;2023-03-17T08:35:30;9.80;99.90
67890;DHT22;54685;52.082;5.426;2023-03-17T08:37:57;9.80;99.90
67890;DHT22;54685;52.082;5.426;2023-03-17T08:40:25;9.90;99.90
67890;DHT22;54685;52.082;5.426;2023-03-17T08:42:52;10.00;99.90
67890;DHT22;54685;52.082;5.426;2023-03-17T08:45:19;10.10;99.90
67890;DHT22;54685;52.082;5.426;2023-03-17T08:47:46;10.30;99.90
67890;DHT22;54685;52.082;5.426;2023-03-17T08:50:17;10.40;99.90
67890;DHT22;54685;52.082;5.426;2023-03-17T08:52:45;10.40;98.00
67890;DHT22;54685;52.082;5.426;2023-03-17T08:55:13;10.60;99.90
67890;DHT22;54685;52.082;5.426;2023-03-17T08:57:41;10.60;99.90
67890;DHT22;54685;52.082;5.426;2023-03-17T09:00:12;10.70;98.30
67890;DHT22;54685;52.082;5.426;2023-03-17T09:02:41;10.80;96.50
67890;DHT22;54685;52.082;5.426;2023-03-17T09:05:11;10.80;95.50
67890;DHT22;54685;52.082;5.426;2023-03-17T09:07:40;10.90;96.00
67890;DHT22;54685;52.082;5.426;2023-03-17T09:10:08;11.00;95.70
67890;DHT22;54685;52.082;5.426;2023-03-17T09:12:37;11.00;96.80
67890;DHT22;54685;52.082;5.426;2023-03-17T09:15:05;11.00;94.60
67890;DHT22;54685;52.082;5.426;2023-03-17T09:17:33;11.10;94.60
67890;DHT22;54685;52.082;5.426;2023-03-17T09:20:00;11.20;95.40
67890;DHT22;54685;52.082;5.426;2023-03-17T09:22:27;11.20;97.10
67890;DHT22;54685;52.082;5.426;2023-03-17T09:24:54;11.40;95.30
67890;DHT22;54685;52.082;5.426;2023-03-17T09:27:21;11.50;93.80
67890;DHT22;54685;52.082;5.426;2023-03-17T09:29:48;11.60;93.60
67890;DHT22;54685;52.082;5.426;2023-03-17T09:32:16;11.70;95.00
67890;DHT22;54685;52.082;5.426;2023-03-17T09:34:43;11.90;93.50
67890;DHT22;54685;52.082;5.426;2023-03-17T09:37:10;12.00;93.10
67890;DHT22;54685;52.082;5.426;2023-03-17T09:39:37;12.30;91.20
67890;DHT22;54685;52.082;5.426;2023-03-17T09:50:13;13.00;84.40
67890;DHT22;54685;52.082;5.426;2023-03-17T09:52:42;13.50;80.10
67890;DHT22;54685;52.082;5.426;2023-03-17T09:55:19;13.80;83.50
67890;DHT22;54685;52.082;5.426;2023-03-17T09:57:50;14.10;75.80
67890;DHT22;54685;52.082;5.426;2023-03-17T10:00:20;14.40;74.20
67890;DHT22;54685;52.082;5.426;2023-03-17T10:02:53;14.60;70.30
67890;DHT22;54685;52.082;5.426;2023-03-17T10:05:29;14.60;75.50
67890;DHT22;54685;52.082;5.426;2023-03-17T10:08:08;14.70;71.90
67890;DHT22;54685;52.082;5.426;2023-03-17T10:11:47;14.70;68.20
67890;DHT22;54685;52.082;5.426;2023-03-17T10:17:24;14.60;75.70
67890;DHT22;54685;52.082;5.426;2023-03-17T10:25:27;14.40;77.10
67890;DHT22;54685;52.082;5.426;2023-03-17T10:30:34;14.60;74.10
67890;DHT22;54685;52.082;5.426;2023-03-17T10:33:04;14.60;74.50
67890;DHT22;54685;52.082;5.426;2023-03-17T10:35:36;14.90;76.40
67890;DHT22;54685;52.082;5.426;2023-03-17T10:38:21;15.20;71.50
67890;DHT22;54685;52.082;5.426;2023-03-17T10:41:04;15.60;64.00
67890;DHT22;54685;52.082;5.426;2023-03-17T10:43:45;15.80;64.00
67890;DHT22;54685;52.082;5.426;2023-03-17T10:46:32;16.20;63.20
67890;DHT22;54685;52.082;5.426;2023-03-17T10:49:07;16.50;61.80
67890;DHT22;54685;52.082;5.426;2023-03-17T10:51:37;16.70;62.80
67890;DHT22;54685;52.082;5.426;2023-03-17T10:54:09;16.70;62.90
67890;DHT22;54685;52.082;5.426;2023-03-17T10:56:39;16.80;60.90
67890;DHT22;54685;52.082;5.426;2023-03-17T11:01:48;17.20;59.20
67890;DHT22;54685;52.082;5.426;2023-03-17T11:04:30;17.40;62.00
67890;DHT22;54685;52.082;5.426;2023-03-17T11:06:59;17.40;60.90
67890;DHT22;54685;52.082;5.426;2023-03-17T11:09:34;17.20;60.80
67890;DHT22;54685;52.082;5.426;2023-03-17T11:12:05;17.10;62.10
67890;DHT22;54685;52.082;5.426;2023-03-17T11:14:32;17.20;62.90
67890;DHT22;54685;52.082;5.426;2023-03-17T11:17:28;17.20;62.60
67890;DHT22;54685;52.082;5.426;2023-03-17T11:22:44;17.30;61.30
67890;DHT22;54685;52.082;5.426;2023-03-17T11:25:18;17.20;61.80
67890;DHT22;54685;52.082;5.426;2023-03-17T11:27:50;17.00;62.40
67890;DHT22;54685;52.082;5.426;2023-03-17T11:30:36;16.80;63.20
67890;DHT22;54685;52.082;5.426;2023-03-17T11:33:26;16.60;62.70
67890;DHT22;54685;52.082;5.426;2023-03-17T11:36:08;16.60;65.10
67890;DHT22;54685;52.082;5.426;2023-03-17T11:38:53;16.60;66.80
67890;DHT22;54685;52.082;5.426;2023-03-17T11:47:19;17.80;62.30
67890;DHT22;54685;52.082;5.426;2023-03-17T11:50:18;18.10;62.70
67890;DHT22;54685;52.082;5.426;2023-03-17T11:56:27;18.20;59.40
67890;DHT22;54685;52.082;5.426;2023-03-17T11:58:40;18.10;60.30
67890;DHT22;54685;52.082;5.426;2023-03-17T12:01:13;17.90;60.70
67890;DHT22;54685;52.082;5.426;2023-03-17T12:03:48;17.80;61.70
67890;DHT22;54685;52.082;5.426;2023-03-17T12:06:31;17.70;62.10
67890;DHT22;54685;52.082;5.426;2023-03-17T12:11:44;18.00;61.90
67890;DHT22;54685;52.082;5.426;2023-03-17T12:14:24;18.30;63.70
67890;DHT22;54685;52.082;5.426;2023-03-17T12:17:34;18.50;62.60
67890;DHT22;54685;52.082;5.426;2023-03-17T12:19:57;18.60;61.60
67890;DHT22;54685;52.082;5.426;2023-03-17T12:22:32;19.00;61.60
67890;DHT22;54685;52.082;5.426;2023-03-17T12:25:10;19.10;59.20
67890;DHT22;54685;52.082;5.426;2023-03-17T12:28:27;19.20;58.60
67890;DHT22;54685;52.082;5.426;2023-03-17T12:31:02;19.40;59.00
67890;DHT22;54685;52.082;5.426;2023-03-17T12:36:36;19.00;56.10
67890;DHT22;54685;52.082;5.426;2023-03-17T12:39:33;18.80;58.80
67890;DHT22;54685;52.082;5.426;2023-03-17T12:50:39;18.40;59.50
67890;DHT22;54685;52.082;5.426;2023-03-17T12:53:26;18.20;60.70
67890;DHT22;54685;52.082;5.426;2023-03-17T12:56:13;18.10;61.70
67890;DHT22;54685;52.082;5.426;2023-03-17T12:59:07;18.00;62.10
67890;DHT22;54685;52.082;5.426;2023-03-17T13:01:44;17.90;60.60
67890;DHT22;54685;52.082;5.426;2023-03-17T13:04:22;17.90;64.70
67890;DHT22;54685;52.082;5.426;2023-03-17T13:07:10;17.90;64.10
67890;DHT22;54685;52.082;5.426;2023-03-17T13:12:54;18.00;63.60
67890;DHT22;54685;52.082;5.426;2023-03-17T13:18:44;18.00;65.00
67890;DHT22;54685;52.082;5.426;2023-03-17T13:21:16;17.90;61.80
67890;DHT22;54685;52.082;5.426;2023-03-17T13:23:57;17.60;62.90
67890;DHT22;54685;52.082;5.426;2023-03-17T13:26:57;17.50;62.80
67890;DHT22;54685;52.082;5.426;2023-03-17T13:35:08;17.40;65.60
67890;DHT22;54685;52.082;5.426;2023-03-17T13:37:50;17.40;64.90
67890;DHT22;54685;52.082;5.426;2023-03-17T13:40:37;17.40;65.10
67890;DHT22;54685;52.082;5.426;2023-03-17T13:45:46;17.40;67.30
67890;DHT22;54685;52.082;5.426;2023-03-17T13:48:25;17.30;70.70
67890;DHT22;54685;52.082;5.426;2023-03-17T13:50:56;17.30;65.70
67890;DHT22;54685;52.082;5.426;2023-03-17T13:53:28;17.20;69.90
67890;DHT22;54685;52.082;5.426;2023-03-17T13:58:31;17.20;68.60
67890;DHT22;54685;52.082;5.426;2023-03-17T14:01:02;17.10;66.50
67890;DHT22;54685;52.082;5.426;2023-03-17T14:03:41;17.10;70.30
67890;DHT22;54685;52.082;5.426;2023-03-17T14:06:10;17.20;71.10
67890;DHT22;54685;52.082;5.426;2023-03-17T14:08:44;17.30;75.20
67890;DHT22;54685;52.082;5.426;2023-03-17T14:11:32;17.40;69.40
67890;DHT22;54685;52.082;5.426;2023-03-17T14:14:32;17.40;69.30
67890;DHT22;54685;52.082;5.426;2023-03-17T14:19:58;17.20;68.60
67890;DHT22;54685;52.082;5.426;2023-03-17T14:22:26;17.30;69.70
67890;DHT22;54685;52.082;5.426;2023-03-17T14:24:55;17.30;73.30
67890;DHT22;54685;52.082;5.426;2023-03-17T14:27:25;17.40;73.90
67890;DHT22;54685;52.082;5.426;2023-03-17T14:29:53;17.50;72.50
67890;DHT22;54685;52.082;5.426;2023-03-17T14:32:22;17.70;72.60
67890;DHT22;54685;52.082;5.426;2023-03-17T14:34:57;17.70;73.00
67890;DHT22;54685;52.082;5.426;2023-03-17T14:37:28;17.70;68.30
67890;DHT22;54685;52.082;5.426;2023-03-17T14:39:56;17.80;67.60
67890;DHT22;54685;52.082;5.426;2023-03-17T14:42:28;17.80;68.00
67890;DHT22;54685;52.082;5.426;2023-03-17T14:45:05;17.90;68.90
67890;DHT22;54685;52.082;5.426;2023-03-17T14:47:40;18.00;67.50
67890;DHT22;54685;52.082;5.426;2023-03-17T14:50:27;18.10;63.80
67890;DHT22;54685;52.082;5.426;2023-03-17T14:52:57;18.10;62.50
67890;DHT22;54685;52.082;5.426;2023-03-17T14:55:34;18.10;65.40
67890;DHT22;54685;52.082;5.426;2023-03-17T14:58:08;18.20;62.80
67890;DHT22;54685;52.082;5.426;2023-03-17T15:00:42;18.10;65.40
67890;DHT22;54685;52.082;5.426;2023-03-17T15:03:18;18.10;63.80
67890;DHT22;54685;52.082;5.426;2023-03-17T15:05:47;18.10;61.90
67890;DHT22;54685;52.082;5.426;2023-03-17T15:08:38;18.10;63.70
67890;DHT22;54685;52.082;5.426;2023-03-17T15:13:46;18.00;64.40
67890;DHT22;54685;52.082;5.426;2023-03-17T15:16:23;18.00;66.50
67890;DHT22;54685;52.082;5.426;2023-03-17T15:19:05;18.00;65.20
67890;DHT22;54685;52.082;5.426;2023-03-17T15:21:36;18.00;63.40
67890;DHT22;54685;52.082;5.426;2023-03-17T15:24:21;17.90;66.90
67890;DHT22;54685;52.082;5.426;2023-03-17T15:26:49;17.80;60.90
67890;DHT22;54685;52.082;5.426;2023-03-17T15:29:16;17.80;65.60
67890;DHT22;54685;52.082;5.426;2023-03-17T15:31:43;18.00;67.10
67890;DHT22;54685;52.082;5.426;2023-03-17T15:34:12;17.90;66.90
67890;DHT22;54685;52.082;5.426;2023-03-17T15:36:41;17.90;66.70
67890;DHT22;54685;52.082;5.426;2023-03-17T15:39:09;17.90;66.90
67890;DHT22;54685;52.082;5.426;2023-03-17T15:41:40;17.90;67.90
67890;DHT22;54685;52.082;5.426;2023-03-17T15:44:07;17.80;68.00
67890;DHT22;54685;52.082;5.426;2023-03-17T15:46:34;17.80;66.80
67890;DHT22;54685;52.082;5.426;2023-03-17T15:49:08;17.70;66.60
67890;DHT22;54685;52.082;5.426;2023-03-17T15:51:36;17.70;65.90
67890;DHT22;54685;52.082;5.426;2023-03-17T15:54:04;17.70;68.10
67890;DHT22;54685;52.082;5.426;2023-03-17T15:56:31;17.70;67.70
67890;DHT22;54685;52.082;5.426;2023-03-17T15:59:00;17.60;68.20
67890;DHT22;54685;52.082;5.426;2023-03-17T16:01:27;17.60;67.90
67890;DHT22;54685;52.082;5.426;2023-03-17T16:03:54;17.50;66.80
67890;DHT22;54685;52.082;5.426;2023-03-17T16:06:21;17.50;66.70
67890;DHT22;54685;52.082;5.426;2023-03-17T16:08:50;17.40;67.70
67890;DHT22;54685;52.082;5.426;2023-03-17T16:11:20;17.40;68.10
67890;DHT22;54685;52.082;5.426;2023-03-17T16:13:54;17.40;69.80
67890;DHT22;54685;52.082;5.426;2023-03-17T16:16:41;17.40;70.80
67890;DHT22;54685;52.082;5.426;2023-03-17T16:19:20;17.30;65.80
67890;DHT22;54685;52.082;5.426;2023-03-17T16:21:48;17.20;73.70
67890;DHT22;54685;52.082;5.426;2023-03-17T16:24:18;17.20;74.20
67890;DHT22;54685;52.082;5.426;2023-03-17T16:26:46;17.20;74.70
67890;DHT22;54685;52.082;5.426;2023-03-17T16:29:13;17.10;76.10
67890;DHT22;54685;52.082;5.426;2023-03-17T16:31:43;17.10;75.80
67890;DHT22;54685;52.082;5.426;2023-03-17T16:34:20;17.00;76.10
67890;DHT22;54685;52.082;5.426;2023-03-17T16:36:48;17.00;76.70
67890;DHT22;54685;52.082;5.426;2023-03-17T16:39:19;17.00;78.90
67890;DHT22;54685;52.082;5.426;2023-03-17T16:41:47;16.90;80.50
67890;DHT22;54685;52.082;5.426;2023-03-17T16:44:15;16.80;82.10
67890;DHT22;54685;52.082;5.426;2023-03-17T16:46:45;16.80;84.30
67890;DHT22;54685;52.082;5.426;2023-03-17T16:49:17;16.70;83.40
67890;DHT22;54685;52.082;5.426;2023-03-17T16:51:45;16.70;85.10
67890;DHT22;54685;52.082;5.426;2023-03-17T16:54:14;16.60;83.50
67890;DHT22;54685;52.082;5.426;2023-03-17T16:56:41;16.60;84.60
67890;DHT22;54685;52.082;5.426;2023-03-17T16:59:18;16.50;87.70
67890;DHT22;54685;52.082;5.426;2023-03-17T17:01:45;16.40;89.80
67890;DHT22;54685;52.082;5.426;2023-03-17T17:04:12;16.40;91.60
67890;DHT22;54685;52.082;5.426;2023-03-17T17:06:39;16.30;93.30
67890;DHT22;54685;52.082;5.426;2023-03-17T17:09:06;16.20;95.40
67890;DHT22;54685;52.082;5.426;2023-03-17T17:11:32;16.10;98.50
67890;DHT22;54685;52.082;5.426;2023-03-17T17:13:59;16.00;99.70
67890;DHT22;54685;52.082;5.426;2023-03-17T17:16:32;16.00;99.90
67890;DHT22;54685;52.082;5.426;2023-03-17T17:19:01;15.90;99.90